Sharps, VA (22548)

1:54 AM EST on February 12, 2016 (GMT -0500)
Settlers Landing | | Change Station
CLOSE
Current Station
Personal Weather Station
Location: Warsaw, VA
Elevation: 43 ft
Nearby Weather Stations

Elev 43 ft 37.93 °N, 76.71 °W | Updated 6 minutes ago

Clear
Clear
15.8 °F
Feels Like 16 °F
N
0.0
Wind Variable Wind from NE

Today
High -- | Low -- °F
--% Chance of Precip.
Yesterday
High -- | Low -- °F
Precip. -- in
Pressure 30.34 in
Visibility 10.0 miles
Clouds Clear
Windchill 16 °F
Dew Point 13 °F
Humidity 88%
Rainfall 0.00 in
Snow Depth Not available.
7:00 AM 5:42 PM
Waxing Crescent, 18% visible
METAR KXSA 120635Z AUTO 00000KT 10SM CLR M08/M14 A3034 RMK AO2 T10761143
Pressure 30.34 in
Visibility 10.0 miles
Clouds Clear
Windchill 16 °F
Dew Point 13 °F
Humidity 88%
Rainfall 0.00 in
Snow Depth Not available.
7:00 AM 5:42 PM
Waxing Crescent, 18% visible
METAR KXSA 120635Z AUTO 00000KT 10SM CLR M08/M14 A3034 RMK AO2 T10761143

10-Day Weather Forecast

Almanac

Astronomy

Feb. 12, 2016 Rise Set
Actual Time
Civil Twilight
Nautical Twilight
Astronomical Twilight
Moon
Length of Visible Light
Length of Day
Tomorrow will be .
, % of the Moon is Illuminated

Today's Extremes

State Highs State Lows

Community

WunderPhotos

Upload Photos

1,892,276 photos uploaded!

WunderBlog® & News

Nearby

Air Quality

  Air Quality AQ Index Pollutant
Not available.

Snow Depth

Station Depth Elevation

Earthquake Activity

City Distance Mag. Time & Date
Minimum magnitude displayed is 2.5.

Coastal Water Temperatures

Place Temperature

Stations

Nearby Weather Stations

Station Location Temp. Windchill Dew Point Humidity Wind Precip. Elev Updated Type
                   

Watches & Warnings

There are currently no watches in effect.